sensor_id;sensor_type;location;lat;lon;timestamp;P1;durP1;ratioP1;P2;durP2;ratioP2
18568;SDS011;14780;48.316;-1.050;2023-01-13T00:00:32;1.58;;;1.13;;
18568;SDS011;14780;48.316;-1.050;2023-01-13T00:03:17;1.65;;;1.20;;
18568;SDS011;14780;48.316;-1.050;2023-01-13T00:06:03;3.10;;;1.50;;
18568;SDS011;14780;48.316;-1.050;2023-01-13T00:08:49;1.67;;;1.10;;
18568;SDS011;14780;48.316;-1.050;2023-01-13T00:11:34;2.33;;;1.38;;
18568;SDS011;14780;48.316;-1.050;2023-01-13T00:14:18;1.70;;;1.15;;
18568;SDS011;14780;48.316;-1.050;2023-01-13T00:17:03;2.38;;;1.25;;
18568;SDS011;14780;48.316;-1.050;2023-01-13T00:19:48;3.72;;;1.30;;
18568;SDS011;14780;48.316;-1.050;2023-01-13T00:22:34;1.83;;;1.20;;
18568;SDS011;14780;48.316;-1.050;2023-01-13T00:25:18;1.75;;;1.15;;
18568;SDS011;14780;48.316;-1.050;2023-01-13T00:28:03;2.90;;;1.38;;
18568;SDS011;14780;48.316;-1.050;2023-01-13T00:30:48;2.80;;;1.60;;
18568;SDS011;14780;48.316;-1.050;2023-01-13T00:33:34;2.92;;;1.45;;
18568;SDS011;14780;48.316;-1.050;2023-01-13T00:36:19;3.00;;;1.20;;
18568;SDS011;14780;48.316;-1.050;2023-01-13T00:39:04;2.80;;;1.52;;
18568;SDS011;14780;48.316;-1.050;2023-01-13T00:41:49;1.90;;;1.35;;
18568;SDS011;14780;48.316;-1.050;2023-01-13T00:44:53;3.00;;;1.45;;
18568;SDS011;14780;48.316;-1.050;2023-01-13T00:47:37;2.35;;;1.25;;
18568;SDS011;14780;48.316;-1.050;2023-01-13T00:50:22;1.92;;;1.33;;
18568;SDS011;14780;48.316;-1.050;2023-01-13T00:53:06;2.45;;;1.52;;
18568;SDS011;14780;48.316;-1.050;2023-01-13T00:56:00;4.38;;;1.17;;
18568;SDS011;14780;48.316;-1.050;2023-01-13T00:58:47;1.20;;;1.10;;
18568;SDS011;14780;48.316;-1.050;2023-01-13T01:01:34;3.22;;;1.42;;
18568;SDS011;14780;48.316;-1.050;2023-01-13T01:04:18;4.07;;;1.60;;
18568;SDS011;14780;48.316;-1.050;2023-01-13T01:07:03;2.42;;;1.10;;
18568;SDS011;14780;48.316;-1.050;2023-01-13T01:09:48;4.28;;;1.80;;
18568;SDS011;14780;48.316;-1.050;2023-01-13T01:12:33;2.63;;;1.70;;
18568;SDS011;14780;48.316;-1.050;2023-01-13T01:15:18;2.17;;;1.55;;
18568;SDS011;14780;48.316;-1.050;2023-01-13T01:18:02;3.20;;;1.50;;
18568;SDS011;14780;48.316;-1.050;2023-01-13T01:20:47;3.20;;;1.67;;
18568;SDS011;14780;48.316;-1.050;2023-01-13T01:23:32;3.58;;;1.75;;
18568;SDS011;14780;48.316;-1.050;2023-01-13T01:26:19;3.28;;;1.70;;
18568;SDS011;14780;48.316;-1.050;2023-01-13T01:29:05;3.47;;;1.70;;
18568;SDS011;14780;48.316;-1.050;2023-01-13T01:31:50;2.80;;;1.52;;
18568;SDS011;14780;48.316;-1.050;2023-01-13T01:34:34;3.53;;;1.70;;
18568;SDS011;14780;48.316;-1.050;2023-01-13T01:37:19;3.40;;;1.90;;
18568;SDS011;14780;48.316;-1.050;2023-01-13T01:40:03;2.60;;;1.58;;
18568;SDS011;14780;48.316;-1.050;2023-01-13T01:42:48;2.65;;;1.77;;
18568;SDS011;14780;48.316;-1.050;2023-01-13T01:45:52;2.55;;;1.60;;
18568;SDS011;14780;48.316;-1.050;2023-01-13T01:48:38;3.47;;;1.80;;
18568;SDS011;14780;48.316;-1.050;2023-01-13T01:51:25;4.05;;;2.05;;
18568;SDS011;14780;48.316;-1.050;2023-01-13T01:54:14;3.10;;;1.77;;
18568;SDS011;14780;48.316;-1.050;2023-01-13T01:57:09;4.10;;;1.50;;
18568;SDS011;14780;48.316;-1.050;2023-01-13T01:59:58;2.78;;;1.65;;
18568;SDS011;14780;48.316;-1.050;2023-01-13T02:02:44;2.85;;;1.70;;
18568;SDS011;14780;48.316;-1.050;2023-01-13T02:05:31;4.10;;;1.80;;
18568;SDS011;14780;48.316;-1.050;2023-01-13T02:08:17;6.72;;;2.00;;
18568;SDS011;14780;48.316;-1.050;2023-01-13T02:11:03;4.65;;;2.03;;
18568;SDS011;14780;48.316;-1.050;2023-01-13T02:13:47;4.40;;;2.00;;
18568;SDS011;14780;48.316;-1.050;2023-01-13T02:16:32;3.13;;;2.00;;
18568;SDS011;14780;48.316;-1.050;2023-01-13T02:22:30;3.42;;;1.90;;
18568;SDS011;14780;48.316;-1.050;2023-01-13T02:29:03;3.33;;;1.52;;
18568;SDS011;14780;48.316;-1.050;2023-01-13T02:32:10;3.33;;;1.67;;
18568;SDS011;14780;48.316;-1.050;2023-01-13T02:37:50;2.87;;;1.53;;
18568;SDS011;14780;48.316;-1.050;2023-01-13T02:40:46;4.97;;;2.20;;
18568;SDS011;14780;48.316;-1.050;2023-01-13T02:43:41;4.07;;;1.85;;
18568;SDS011;14780;48.316;-1.050;2023-01-13T02:46:47;5.57;;;2.17;;
18568;SDS011;14780;48.316;-1.050;2023-01-13T02:49:35;3.85;;;2.08;;
18568;SDS011;14780;48.316;-1.050;2023-01-13T02:55:58;4.63;;;2.20;;
18568;SDS011;14780;48.316;-1.050;2023-01-13T02:58:46;5.30;;;2.10;;
18568;SDS011;14780;48.316;-1.050;2023-01-13T03:01:31;4.88;;;2.35;;
18568;SDS011;14780;48.316;-1.050;2023-01-13T03:10:31;4.30;;;2.17;;
18568;SDS011;14780;48.316;-1.050;2023-01-13T03:19:38;4.75;;;1.95;;
18568;SDS011;14780;48.316;-1.050;2023-01-13T03:22:33;4.47;;;2.20;;
18568;SDS011;14780;48.316;-1.050;2023-01-13T03:25:25;4.43;;;2.10;;
18568;SDS011;14780;48.316;-1.050;2023-01-13T03:28:19;4.53;;;2.10;;
18568;SDS011;14780;48.316;-1.050;2023-01-13T03:31:14;3.72;;;2.03;;
18568;SDS011;14780;48.316;-1.050;2023-01-13T03:34:06;5.35;;;2.05;;
18568;SDS011;14780;48.316;-1.050;2023-01-13T03:36:56;4.68;;;1.88;;
18568;SDS011;14780;48.316;-1.050;2023-01-13T03:39:44;4.50;;;2.28;;
18568;SDS011;14780;48.316;-1.050;2023-01-13T03:42:34;3.08;;;1.77;;
18568;SDS011;14780;48.316;-1.050;2023-01-13T03:45:21;3.85;;;2.00;;
18568;SDS011;14780;48.316;-1.050;2023-01-13T03:48:07;4.13;;;2.03;;
18568;SDS011;14780;48.316;-1.050;2023-01-13T03:51:01;2.95;;;1.92;;
18568;SDS011;14780;48.316;-1.050;2023-01-13T03:53:51;4.50;;;2.28;;
18568;SDS011;14780;48.316;-1.050;2023-01-13T03:56:44;4.03;;;2.05;;
18568;SDS011;14780;48.316;-1.050;2023-01-13T03:59:36;3.85;;;1.73;;
18568;SDS011;14780;48.316;-1.050;2023-01-13T04:05:27;4.90;;;2.17;;
18568;SDS011;14780;48.316;-1.050;2023-01-13T04:08:20;4.03;;;2.08;;
18568;SDS011;14780;48.316;-1.050;2023-01-13T04:11:29;3.72;;;1.88;;
18568;SDS011;14780;48.316;-1.050;2023-01-13T04:14:20;4.63;;;1.90;;
18568;SDS011;14780;48.316;-1.050;2023-01-13T04:17:08;4.78;;;2.15;;
18568;SDS011;14780;48.316;-1.050;2023-01-13T04:19:53;4.97;;;2.53;;
18568;SDS011;14780;48.316;-1.050;2023-01-13T04:22:38;8.13;;;2.38;;
18568;SDS011;14780;48.316;-1.050;2023-01-13T04:25:22;4.72;;;2.25;;
18568;SDS011;14780;48.316;-1.050;2023-01-13T04:28:07;4.68;;;1.90;;
18568;SDS011;14780;48.316;-1.050;2023-01-13T04:30:52;4.50;;;2.60;;
18568;SDS011;14780;48.316;-1.050;2023-01-13T04:33:37;5.10;;;2.38;;
18568;SDS011;14780;48.316;-1.050;2023-01-13T04:36:22;4.55;;;2.25;;
18568;SDS011;14780;48.316;-1.050;2023-01-13T04:39:10;5.15;;;2.50;;
18568;SDS011;14780;48.316;-1.050;2023-01-13T04:41:55;5.00;;;2.08;;
18568;SDS011;14780;48.316;-1.050;2023-01-13T04:44:43;5.90;;;2.50;;
18568;SDS011;14780;48.316;-1.050;2023-01-13T04:47:28;4.70;;;2.25;;
18568;SDS011;14780;48.316;-1.050;2023-01-13T04:50:13;3.88;;;2.22;;
18568;SDS011;14780;48.316;-1.050;2023-01-13T04:53:01;4.07;;;2.10;;
18568;SDS011;14780;48.316;-1.050;2023-01-13T04:55:46;5.88;;;2.42;;
18568;SDS011;14780;48.316;-1.050;2023-01-13T04:58:32;4.35;;;2.10;;
18568;SDS011;14780;48.316;-1.050;2023-01-13T05:01:17;6.57;;;2.60;;
18568;SDS011;14780;48.316;-1.050;2023-01-13T05:04:01;3.53;;;2.13;;
18568;SDS011;14780;48.316;-1.050;2023-01-13T05:06:46;4.88;;;2.25;;
18568;SDS011;14780;48.316;-1.050;2023-01-13T05:09:31;4.65;;;2.42;;
18568;SDS011;14780;48.316;-1.050;2023-01-13T05:12:17;5.68;;;2.05;;
18568;SDS011;14780;48.316;-1.050;2023-01-13T05:15:21;6.32;;;2.35;;
18568;SDS011;14780;48.316;-1.050;2023-01-13T05:18:24;3.42;;;2.03;;
18568;SDS011;14780;48.316;-1.050;2023-01-13T05:21:10;5.63;;;2.45;;
18568;SDS011;14780;48.316;-1.050;2023-01-13T05:24:15;4.32;;;2.20;;
18568;SDS011;14780;48.316;-1.050;2023-01-13T05:27:18;4.95;;;2.28;;
18568;SDS011;14780;48.316;-1.050;2023-01-13T05:30:04;6.43;;;2.80;;
18568;SDS011;14780;48.316;-1.050;2023-01-13T05:32:51;6.40;;;2.58;;
18568;SDS011;14780;48.316;-1.050;2023-01-13T05:35:37;5.50;;;2.58;;
18568;SDS011;14780;48.316;-1.050;2023-01-13T05:38:23;3.55;;;2.15;;
18568;SDS011;14780;48.316;-1.050;2023-01-13T05:41:08;5.10;;;2.20;;
18568;SDS011;14780;48.316;-1.050;2023-01-13T05:44:11;5.03;;;2.30;;
18568;SDS011;14780;48.316;-1.050;2023-01-13T05:46:56;5.93;;;2.60;;
18568;SDS011;14780;48.316;-1.050;2023-01-13T05:49:40;5.38;;;2.60;;
18568;SDS011;14780;48.316;-1.050;2023-01-13T05:52:25;4.82;;;2.28;;
18568;SDS011;14780;48.316;-1.050;2023-01-13T05:55:10;3.88;;;2.15;;
18568;SDS011;14780;48.316;-1.050;2023-01-13T05:57:55;4.60;;;2.45;;
18568;SDS011;14780;48.316;-1.050;2023-01-13T06:00:40;3.85;;;2.40;;
18568;SDS011;14780;48.316;-1.050;2023-01-13T06:03:25;6.63;;;2.70;;
18568;SDS011;14780;48.316;-1.050;2023-01-13T06:06:10;5.38;;;2.35;;
18568;SDS011;14780;48.316;-1.050;2023-01-13T06:08:55;6.18;;;2.70;;
18568;SDS011;14780;48.316;-1.050;2023-01-13T06:11:39;5.07;;;2.33;;
18568;SDS011;14780;48.316;-1.050;2023-01-13T06:14:24;5.00;;;2.50;;
18568;SDS011;14780;48.316;-1.050;2023-01-13T06:17:22;4.43;;;2.30;;
18568;SDS011;14780;48.316;-1.050;2023-01-13T06:20:07;7.20;;;2.28;;
18568;SDS011;14780;48.316;-1.050;2023-01-13T06:22:52;5.05;;;2.50;;
18568;SDS011;14780;48.316;-1.050;2023-01-13T06:25:43;6.05;;;2.20;;
18568;SDS011;14780;48.316;-1.050;2023-01-13T06:28:48;53.00;;;37.25;;
18568;SDS011;14780;48.316;-1.050;2023-01-13T06:31:34;72.22;;;54.00;;
18568;SDS011;14780;48.316;-1.050;2023-01-13T06:34:20;72.70;;;55.42;;
18568;SDS011;14780;48.316;-1.050;2023-01-13T06:37:06;70.88;;;54.88;;
18568;SDS011;14780;48.316;-1.050;2023-01-13T06:39:51;62.10;;;49.67;;
18568;SDS011;14780;48.316;-1.050;2023-01-13T06:42:40;60.53;;;46.35;;
18568;SDS011;14780;48.316;-1.050;2023-01-13T06:45:48;62.30;;;44.78;;
18568;SDS011;14780;48.316;-1.050;2023-01-13T06:48:35;55.10;;;41.17;;
18568;SDS011;14780;48.316;-1.050;2023-01-13T06:51:19;52.40;;;36.80;;
18568;SDS011;14780;48.316;-1.050;2023-01-13T06:54:04;47.78;;;35.42;;
18568;SDS011;14780;48.316;-1.050;2023-01-13T06:56:49;47.45;;;35.10;;
18568;SDS011;14780;48.316;-1.050;2023-01-13T06:59:33;42.00;;;32.13;;
18568;SDS011;14780;48.316;-1.050;2023-01-13T07:02:18;43.08;;;30.35;;
18568;SDS011;14780;48.316;-1.050;2023-01-13T07:05:03;38.15;;;27.13;;
18568;SDS011;14780;48.316;-1.050;2023-01-13T07:07:47;37.20;;;26.60;;
18568;SDS011;14780;48.316;-1.050;2023-01-13T07:10:32;32.65;;;24.98;;
18568;SDS011;14780;48.316;-1.050;2023-01-13T07:13:17;33.72;;;24.75;;
18568;SDS011;14780;48.316;-1.050;2023-01-13T07:16:21;31.15;;;21.88;;
18568;SDS011;14780;48.316;-1.050;2023-01-13T07:19:06;31.98;;;21.85;;
18568;SDS011;14780;48.316;-1.050;2023-01-13T07:21:51;27.83;;;19.20;;
18568;SDS011;14780;48.316;-1.050;2023-01-13T07:24:36;29.23;;;19.15;;
18568;SDS011;14780;48.316;-1.050;2023-01-13T07:27:21;27.08;;;18.15;;
18568;SDS011;14780;48.316;-1.050;2023-01-13T07:30:05;25.83;;;17.30;;
18568;SDS011;14780;48.316;-1.050;2023-01-13T07:32:51;22.77;;;16.25;;
18568;SDS011;14780;48.316;-1.050;2023-01-13T07:35:35;24.88;;;16.45;;
18568;SDS011;14780;48.316;-1.050;2023-01-13T07:38:20;20.88;;;14.35;;
18568;SDS011;14780;48.316;-1.050;2023-01-13T07:41:05;22.13;;;14.82;;
18568;SDS011;14780;48.316;-1.050;2023-01-13T07:44:08;19.83;;;13.38;;
18568;SDS011;14780;48.316;-1.050;2023-01-13T07:46:53;21.25;;;13.10;;
18568;SDS011;14780;48.316;-1.050;2023-01-13T07:49:38;19.80;;;13.15;;
18568;SDS011;14780;48.316;-1.050;2023-01-13T07:52:22;19.98;;;12.02;;
18568;SDS011;14780;48.316;-1.050;2023-01-13T07:55:07;17.58;;;11.82;;
18568;SDS011;14780;48.316;-1.050;2023-01-13T07:57:52;16.90;;;11.48;;
18568;SDS011;14780;48.316;-1.050;2023-01-13T08:00:37;18.65;;;11.98;;
18568;SDS011;14780;48.316;-1.050;2023-01-13T08:03:22;17.52;;;11.15;;
18568;SDS011;14780;48.316;-1.050;2023-01-13T08:06:07;17.58;;;10.63;;
18568;SDS011;14780;48.316;-1.050;2023-01-13T08:08:53;14.82;;;10.77;;
18568;SDS011;14780;48.316;-1.050;2023-01-13T08:11:38;13.38;;;9.27;;
18568;SDS011;14780;48.316;-1.050;2023-01-13T08:17:08;13.95;;;8.10;;
18568;SDS011;14780;48.316;-1.050;2023-01-13T08:19:53;14.15;;;8.40;;
18568;SDS011;14780;48.316;-1.050;2023-01-13T08:22:38;14.65;;;8.00;;
18568;SDS011;14780;48.316;-1.050;2023-01-13T08:25:23;14.25;;;8.13;;
18568;SDS011;14780;48.316;-1.050;2023-01-13T08:28:10;12.40;;;7.40;;
18568;SDS011;14780;48.316;-1.050;2023-01-13T08:31:03;13.77;;;7.45;;
18568;SDS011;14780;48.316;-1.050;2023-01-13T08:33:49;11.77;;;7.20;;
18568;SDS011;14780;48.316;-1.050;2023-01-13T08:36:34;10.40;;;6.25;;
18568;SDS011;14780;48.316;-1.050;2023-01-13T08:39:19;12.05;;;6.90;;
18568;SDS011;14780;48.316;-1.050;2023-01-13T08:42:04;11.25;;;6.05;;
18568;SDS011;14780;48.316;-1.050;2023-01-13T08:44:48;10.98;;;7.18;;
18568;SDS011;14780;48.316;-1.050;2023-01-13T08:47:33;8.07;;;5.75;;
18568;SDS011;14780;48.316;-1.050;2023-01-13T08:50:18;10.82;;;5.90;;
18568;SDS011;14780;48.316;-1.050;2023-01-13T08:53:03;9.98;;;5.47;;
18568;SDS011;14780;48.316;-1.050;2023-01-13T08:55:48;8.75;;;5.65;;
18568;SDS011;14780;48.316;-1.050;2023-01-13T08:58:32;10.23;;;5.65;;
18568;SDS011;14780;48.316;-1.050;2023-01-13T09:01:19;9.00;;;5.22;;
18568;SDS011;14780;48.316;-1.050;2023-01-13T09:04:06;8.07;;;4.75;;
18568;SDS011;14780;48.316;-1.050;2023-01-13T09:09:42;8.55;;;5.15;;
18568;SDS011;14780;48.316;-1.050;2023-01-13T09:12:27;10.63;;;5.18;;
18568;SDS011;14780;48.316;-1.050;2023-01-13T09:15:50;10.05;;;5.25;;
18568;SDS011;14780;48.316;-1.050;2023-01-13T09:18:38;8.52;;;5.05;;
18568;SDS011;14780;48.316;-1.050;2023-01-13T09:21:23;9.10;;;4.80;;
18568;SDS011;14780;48.316;-1.050;2023-01-13T09:24:09;10.02;;;4.97;;
18568;SDS011;14780;48.316;-1.050;2023-01-13T09:26:53;9.02;;;4.60;;
18568;SDS011;14780;48.316;-1.050;2023-01-13T09:29:38;8.90;;;5.07;;
18568;SDS011;14780;48.316;-1.050;2023-01-13T09:32:23;8.98;;;4.72;;
18568;SDS011;14780;48.316;-1.050;2023-01-13T09:35:08;7.57;;;4.47;;
18568;SDS011;14780;48.316;-1.050;2023-01-13T09:37:53;10.30;;;4.38;;
18568;SDS011;14780;48.316;-1.050;2023-01-13T09:40:38;6.47;;;4.05;;
18568;SDS011;14780;48.316;-1.050;2023-01-13T09:43:31;7.70;;;4.50;;
18568;SDS011;14780;48.316;-1.050;2023-01-13T09:46:40;6.70;;;4.15;;
18568;SDS011;14780;48.316;-1.050;2023-01-13T09:49:36;7.50;;;4.55;;
18568;SDS011;14780;48.316;-1.050;2023-01-13T09:52:24;9.95;;;4.32;;
18568;SDS011;14780;48.316;-1.050;2023-01-13T09:55:16;8.48;;;3.90;;
18568;SDS011;14780;48.316;-1.050;2023-01-13T09:58:15;5.90;;;3.40;;
18568;SDS011;14780;48.316;-1.050;2023-01-13T10:04:09;6.78;;;3.90;;
18568;SDS011;14780;48.316;-1.050;2023-01-13T10:06:57;8.07;;;3.70;;
18568;SDS011;14780;48.316;-1.050;2023-01-13T10:09:50;8.63;;;3.83;;
18568;SDS011;14780;48.316;-1.050;2023-01-13T10:12:37;8.93;;;4.13;;
18568;SDS011;14780;48.316;-1.050;2023-01-13T10:15:47;8.38;;;3.97;;
18568;SDS011;14780;48.316;-1.050;2023-01-13T10:27:51;7.68;;;3.83;;
18568;SDS011;14780;48.316;-1.050;2023-01-13T10:30:42;6.10;;;3.53;;
18568;SDS011;14780;48.316;-1.050;2023-01-13T10:33:28;5.72;;;3.30;;
18568;SDS011;14780;48.316;-1.050;2023-01-13T10:36:14;6.22;;;3.35;;
18568;SDS011;14780;48.316;-1.050;2023-01-13T10:39:07;7.07;;;3.40;;
18568;SDS011;14780;48.316;-1.050;2023-01-13T10:42:03;7.80;;;3.72;;
18568;SDS011;14780;48.316;-1.050;2023-01-13T10:44:53;6.78;;;3.17;;
18568;SDS011;14780;48.316;-1.050;2023-01-13T10:47:40;5.45;;;3.17;;
18568;SDS011;14780;48.316;-1.050;2023-01-13T10:50:26;5.97;;;3.20;;
18568;SDS011;14780;48.316;-1.050;2023-01-13T10:53:22;5.38;;;2.80;;
18568;SDS011;14780;48.316;-1.050;2023-01-13T10:56:09;6.28;;;3.30;;
18568;SDS011;14780;48.316;-1.050;2023-01-13T10:59:15;5.00;;;2.83;;
18568;SDS011;14780;48.316;-1.050;2023-01-13T11:05:20;7.75;;;3.50;;
18568;SDS011;14780;48.316;-1.050;2023-01-13T11:08:14;7.32;;;3.30;;
18568;SDS011;14780;48.316;-1.050;2023-01-13T11:11:01;6.72;;;2.78;;
18568;SDS011;14780;48.316;-1.050;2023-01-13T11:13:45;5.55;;;2.90;;
18568;SDS011;14780;48.316;-1.050;2023-01-13T11:16:54;6.93;;;3.13;;
18568;SDS011;14780;48.316;-1.050;2023-01-13T11:19:43;7.35;;;3.20;;
18568;SDS011;14780;48.316;-1.050;2023-01-13T11:22:36;7.03;;;2.97;;
18568;SDS011;14780;48.316;-1.050;2023-01-13T11:25:29;5.68;;;3.03;;
18568;SDS011;14780;48.316;-1.050;2023-01-13T11:28:30;5.50;;;3.08;;
18568;SDS011;14780;48.316;-1.050;2023-01-13T11:34:35;5.95;;;3.00;;
18568;SDS011;14780;48.316;-1.050;2023-01-13T11:37:29;6.15;;;2.85;;
18568;SDS011;14780;48.316;-1.050;2023-01-13T11:40:19;6.85;;;3.17;;
18568;SDS011;14780;48.316;-1.050;2023-01-13T11:43:49;6.90;;;3.13;;
18568;SDS011;14780;48.316;-1.050;2023-01-13T11:46:26;7.20;;;3.10;;
18568;SDS011;14780;48.316;-1.050;2023-01-13T11:49:18;5.57;;;2.97;;
18568;SDS011;14780;48.316;-1.050;2023-01-13T11:52:15;6.90;;;3.42;;
18568;SDS011;14780;48.316;-1.050;2023-01-13T11:55:34;6.20;;;3.25;;
18568;SDS011;14780;48.316;-1.050;2023-01-13T11:58:58;6.07;;;2.97;;
18568;SDS011;14780;48.316;-1.050;2023-01-13T12:01:55;5.40;;;2.75;;
18568;SDS011;14780;48.316;-1.050;2023-01-13T12:08:24;6.72;;;3.25;;
18568;SDS011;14780;48.316;-1.050;2023-01-13T12:18:02;9.82;;;2.83;;
18568;SDS011;14780;48.316;-1.050;2023-01-13T12:26:39;7.75;;;3.30;;
18568;SDS011;14780;48.316;-1.050;2023-01-13T12:29:32;12.02;;;4.28;;
18568;SDS011;14780;48.316;-1.050;2023-01-13T12:32:19;8.82;;;3.92;;
18568;SDS011;14780;48.316;-1.050;2023-01-13T12:35:31;9.25;;;3.50;;
18568;SDS011;14780;48.316;-1.050;2023-01-13T12:38:17;10.35;;;4.05;;
18568;SDS011;14780;48.316;-1.050;2023-01-13T12:45:44;9.80;;;3.83;;
18568;SDS011;14780;48.316;-1.050;2023-01-13T12:47:58;12.52;;;3.92;;
18568;SDS011;14780;48.316;-1.050;2023-01-13T12:50:43;9.30;;;3.85;;
18568;SDS011;14780;48.316;-1.050;2023-01-13T12:53:40;9.57;;;4.07;;
18568;SDS011;14780;48.316;-1.050;2023-01-13T12:56:29;9.18;;;3.85;;
18568;SDS011;14780;48.316;-1.050;2023-01-13T13:08:06;10.52;;;3.67;;
18568;SDS011;14780;48.316;-1.050;2023-01-13T13:23:39;10.38;;;3.60;;
18568;SDS011;14780;48.316;-1.050;2023-01-13T13:26:34;6.15;;;3.33;;
18568;SDS011;14780;48.316;-1.050;2023-01-13T13:32:10;10.20;;;3.88;;
18568;SDS011;14780;48.316;-1.050;2023-01-13T13:41:22;8.05;;;3.50;;
18568;SDS011;14780;48.316;-1.050;2023-01-13T13:44:39;7.65;;;3.60;;
18568;SDS011;14780;48.316;-1.050;2023-01-13T13:47:47;8.68;;;3.50;;
18568;SDS011;14780;48.316;-1.050;2023-01-13T13:50:32;10.35;;;3.80;;
18568;SDS011;14780;48.316;-1.050;2023-01-13T13:53:17;7.80;;;3.20;;
18568;SDS011;14780;48.316;-1.050;2023-01-13T13:56:04;8.43;;;3.67;;
18568;SDS011;14780;48.316;-1.050;2023-01-13T13:59:10;7.63;;;3.38;;
18568;SDS011;14780;48.316;-1.050;2023-01-13T14:01:58;7.55;;;3.35;;
18568;SDS011;14780;48.316;-1.050;2023-01-13T14:04:46;7.88;;;4.00;;
18568;SDS011;14780;48.316;-1.050;2023-01-13T14:07:31;5.97;;;3.08;;
18568;SDS011;14780;48.316;-1.050;2023-01-13T14:10:30;7.75;;;3.40;;
18568;SDS011;14780;48.316;-1.050;2023-01-13T14:13:19;7.75;;;3.28;;
18568;SDS011;14780;48.316;-1.050;2023-01-13T14:16:11;8.15;;;3.30;;
18568;SDS011;14780;48.316;-1.050;2023-01-13T14:18:58;9.07;;;3.25;;
18568;SDS011;14780;48.316;-1.050;2023-01-13T14:21:43;7.30;;;3.33;;
18568;SDS011;14780;48.316;-1.050;2023-01-13T14:24:31;9.10;;;3.08;;
18568;SDS011;14780;48.316;-1.050;2023-01-13T14:27:17;8.80;;;3.13;;
18568;SDS011;14780;48.316;-1.050;2023-01-13T14:30:02;8.15;;;3.60;;
18568;SDS011;14780;48.316;-1.050;2023-01-13T14:32:49;7.68;;;3.58;;
18568;SDS011;14780;48.316;-1.050;2023-01-13T14:35:35;6.45;;;3.33;;
18568;SDS011;14780;48.316;-1.050;2023-01-13T14:38:20;7.03;;;3.15;;
18568;SDS011;14780;48.316;-1.050;2023-01-13T14:41:24;6.22;;;3.05;;
18568;SDS011;14780;48.316;-1.050;2023-01-13T14:47:19;6.57;;;2.90;;
18568;SDS011;14780;48.316;-1.050;2023-01-13T14:50:15;5.80;;;3.13;;
18568;SDS011;14780;48.316;-1.050;2023-01-13T14:59:32;7.55;;;3.40;;
18568;SDS011;14780;48.316;-1.050;2023-01-13T15:11:00;8.35;;;3.50;;
18568;SDS011;14780;48.316;-1.050;2023-01-13T15:13:51;9.82;;;3.80;;
18568;SDS011;14780;48.316;-1.050;2023-01-13T15:16:41;9.25;;;3.60;;
18568;SDS011;14780;48.316;-1.050;2023-01-13T15:19:25;10.93;;;3.70;;
18568;SDS011;14780;48.316;-1.050;2023-01-13T15:22:10;6.38;;;2.80;;
18568;SDS011;14780;48.316;-1.050;2023-01-13T15:24:55;9.15;;;3.45;;
18568;SDS011;14780;48.316;-1.050;2023-01-13T15:27:44;10.15;;;3.72;;
18568;SDS011;14780;48.316;-1.050;2023-01-13T15:30:30;7.75;;;3.63;;
18568;SDS011;14780;48.316;-1.050;2023-01-13T15:33:16;9.70;;;3.70;;
18568;SDS011;14780;48.316;-1.050;2023-01-13T15:36:02;7.75;;;3.30;;
18568;SDS011;14780;48.316;-1.050;2023-01-13T15:38:49;8.38;;;3.60;;
18568;SDS011;14780;48.316;-1.050;2023-01-13T15:41:34;8.05;;;3.42;;
18568;SDS011;14780;48.316;-1.050;2023-01-13T15:44:37;8.82;;;4.00;;
18568;SDS011;14780;48.316;-1.050;2023-01-13T15:47:41;7.63;;;3.97;;
18568;SDS011;14780;48.316;-1.050;2023-01-13T15:50:27;13.55;;;4.32;;
18568;SDS011;14780;48.316;-1.050;2023-01-13T15:53:12;10.90;;;4.72;;
18568;SDS011;14780;48.316;-1.050;2023-01-13T15:55:57;13.18;;;4.60;;
18568;SDS011;14780;48.316;-1.050;2023-01-13T15:58:43;13.02;;;4.55;;
18568;SDS011;14780;48.316;-1.050;2023-01-13T16:01:27;13.60;;;4.13;;
18568;SDS011;14780;48.316;-1.050;2023-01-13T16:04:12;14.77;;;4.55;;
18568;SDS011;14780;48.316;-1.050;2023-01-13T16:06:57;8.90;;;4.00;;
18568;SDS011;14780;48.316;-1.050;2023-01-13T16:09:43;17.05;;;4.30;;
18568;SDS011;14780;48.316;-1.050;2023-01-13T16:12:28;11.68;;;4.40;;
18568;SDS011;14780;48.316;-1.050;2023-01-13T16:15:14;10.18;;;4.20;;
18568;SDS011;14780;48.316;-1.050;2023-01-13T16:18:01;10.73;;;4.10;;
18568;SDS011;14780;48.316;-1.050;2023-01-13T16:20:47;12.95;;;4.75;;
18568;SDS011;14780;48.316;-1.050;2023-01-13T16:23:35;11.57;;;4.22;;
18568;SDS011;14780;48.316;-1.050;2023-01-13T16:26:22;10.75;;;3.75;;
18568;SDS011;14780;48.316;-1.050;2023-01-13T16:29:08;9.35;;;4.07;;
18568;SDS011;14780;48.316;-1.050;2023-01-13T16:31:55;11.13;;;3.97;;
18568;SDS011;14780;48.316;-1.050;2023-01-13T16:34:40;10.70;;;3.75;;
18568;SDS011;14780;48.316;-1.050;2023-01-13T16:37:26;9.70;;;3.75;;
18568;SDS011;14780;48.316;-1.050;2023-01-13T16:40:17;11.00;;;4.07;;
18568;SDS011;14780;48.316;-1.050;2023-01-13T16:43:13;13.70;;;4.45;;
18568;SDS011;14780;48.316;-1.050;2023-01-13T16:45:58;9.65;;;4.30;;
18568;SDS011;14780;48.316;-1.050;2023-01-13T16:48:43;8.60;;;3.90;;
18568;SDS011;14780;48.316;-1.050;2023-01-13T16:51:28;11.75;;;3.88;;
18568;SDS011;14780;48.316;-1.050;2023-01-13T16:54:13;11.52;;;3.95;;
18568;SDS011;14780;48.316;-1.050;2023-01-13T16:56:58;8.65;;;3.75;;
18568;SDS011;14780;48.316;-1.050;2023-01-13T16:59:43;8.73;;;3.95;;
18568;SDS011;14780;48.316;-1.050;2023-01-13T17:02:28;9.50;;;4.10;;
18568;SDS011;14780;48.316;-1.050;2023-01-13T17:05:13;10.30;;;3.95;;
18568;SDS011;14780;48.316;-1.050;2023-01-13T17:07:58;9.25;;;4.10;;
18568;SDS011;14780;48.316;-1.050;2023-01-13T17:10:43;10.25;;;3.60;;
18568;SDS011;14780;48.316;-1.050;2023-01-13T17:13:30;10.10;;;3.70;;
18568;SDS011;14780;48.316;-1.050;2023-01-13T17:16:15;7.70;;;3.88;;
18568;SDS011;14780;48.316;-1.050;2023-01-13T17:19:02;8.30;;;3.85;;
18568;SDS011;14780;48.316;-1.050;2023-01-13T17:21:47;8.65;;;3.38;;
18568;SDS011;14780;48.316;-1.050;2023-01-13T17:24:33;9.02;;;3.70;;
18568;SDS011;14780;48.316;-1.050;2023-01-13T17:27:20;8.00;;;3.72;;
18568;SDS011;14780;48.316;-1.050;2023-01-13T17:30:05;8.55;;;3.63;;
18568;SDS011;14780;48.316;-1.050;2023-01-13T17:32:52;7.00;;;3.40;;
18568;SDS011;14780;48.316;-1.050;2023-01-13T17:35:40;7.95;;;3.47;;
18568;SDS011;14780;48.316;-1.050;2023-01-13T17:38:24;8.77;;;3.25;;
18568;SDS011;14780;48.316;-1.050;2023-01-13T17:41:09;10.73;;;3.85;;
18568;SDS011;14780;48.316;-1.050;2023-01-13T17:43:54;8.13;;;3.22;;
18568;SDS011;14780;48.316;-1.050;2023-01-13T17:46:38;8.20;;;3.22;;
18568;SDS011;14780;48.316;-1.050;2023-01-13T17:49:24;10.40;;;3.38;;
18568;SDS011;14780;48.316;-1.050;2023-01-13T17:52:09;6.78;;;3.38;;
18568;SDS011;14780;48.316;-1.050;2023-01-13T17:54:54;8.95;;;3.72;;
18568;SDS011;14780;48.316;-1.050;2023-01-13T17:57:39;5.88;;;3.08;;
18568;SDS011;14780;48.316;-1.050;2023-01-13T18:00:24;6.68;;;3.55;;
18568;SDS011;14780;48.316;-1.050;2023-01-13T18:03:09;7.80;;;3.72;;
18568;SDS011;14780;48.316;-1.050;2023-01-13T18:05:54;6.65;;;3.05;;
18568;SDS011;14780;48.316;-1.050;2023-01-13T18:08:44;7.55;;;3.42;;
18568;SDS011;14780;48.316;-1.050;2023-01-13T18:11:30;6.85;;;3.75;;
18568;SDS011;14780;48.316;-1.050;2023-01-13T18:14:15;8.98;;;3.58;;
18568;SDS011;14780;48.316;-1.050;2023-01-13T18:17:00;9.52;;;3.33;;
18568;SDS011;14780;48.316;-1.050;2023-01-13T18:19:44;7.28;;;3.60;;
18568;SDS011;14780;48.316;-1.050;2023-01-13T18:22:48;6.35;;;3.08;;
18568;SDS011;14780;48.316;-1.050;2023-01-13T18:25:52;6.25;;;3.00;;
18568;SDS011;14780;48.316;-1.050;2023-01-13T18:28:55;8.07;;;3.25;;
18568;SDS011;14780;48.316;-1.050;2023-01-13T18:31:40;6.47;;;3.15;;
18568;SDS011;14780;48.316;-1.050;2023-01-13T18:34:24;5.93;;;2.83;;
18568;SDS011;14780;48.316;-1.050;2023-01-13T18:37:10;6.13;;;3.30;;
18568;SDS011;14780;48.316;-1.050;2023-01-13T18:39:56;7.60;;;3.17;;